sensor_id;sensor_type;location;lat;lon;timestamp;P1;durP1;ratioP1;P2;durP2;ratioP2
48647;SDS011;34437;-33.956;151.076;2023-05-10T00:02:10;2.83;;;1.20;;
48647;SDS011;34437;-33.956;151.076;2023-05-10T00:04:33;1.10;;;1.00;;
48647;SDS011;34437;-33.956;151.076;2023-05-10T00:06:55;1.20;;;1.10;;
48647;SDS011;34437;-33.956;151.076;2023-05-10T00:09:18;1.20;;;1.00;;
48647;SDS011;34437;-33.956;151.076;2023-05-10T00:11:40;1.52;;;1.23;;
48647;SDS011;34437;-33.956;151.076;2023-05-10T00:14:03;1.10;;;1.00;;
48647;SDS011;34437;-33.956;151.076;2023-05-10T00:16:25;1.17;;;1.08;;
48647;SDS011;34437;-33.956;151.076;2023-05-10T00:18:47;1.15;;;0.90;;
48647;SDS011;34437;-33.956;151.076;2023-05-10T00:21:10;1.80;;;1.05;;
48647;SDS011;34437;-33.956;151.076;2023-05-10T00:23:32;1.30;;;1.20;;
48647;SDS011;34437;-33.956;151.076;2023-05-10T00:25:55;1.15;;;1.05;;
48647;SDS011;34437;-33.956;151.076;2023-05-10T00:28:18;1.17;;;1.00;;
48647;SDS011;34437;-33.956;151.076;2023-05-10T00:30:40;1.30;;;1.10;;
48647;SDS011;34437;-33.956;151.076;2023-05-10T00:33:02;1.08;;;0.77;;
48647;SDS011;34437;-33.956;151.076;2023-05-10T00:35:25;1.50;;;1.17;;
48647;SDS011;34437;-33.956;151.076;2023-05-10T00:37:47;1.30;;;1.10;;
48647;SDS011;34437;-33.956;151.076;2023-05-10T00:40:10;0.88;;;0.80;;
48647;SDS011;34437;-33.956;151.076;2023-05-10T00:42:32;1.88;;;1.05;;
48647;SDS011;34437;-33.956;151.076;2023-05-10T00:44:55;1.42;;;0.80;;
48647;SDS011;34437;-33.956;151.076;2023-05-10T00:47:18;1.58;;;1.05;;
48647;SDS011;34437;-33.956;151.076;2023-05-10T00:49:40;1.88;;;1.10;;
48647;SDS011;34437;-33.956;151.076;2023-05-10T00:52:03;1.00;;;0.80;;
48647;SDS011;34437;-33.956;151.076;2023-05-10T00:54:26;1.40;;;0.85;;
48647;SDS011;34437;-33.956;151.076;2023-05-10T00:56:49;1.13;;;0.85;;
48647;SDS011;34437;-33.956;151.076;2023-05-10T00:59:12;1.00;;;0.90;;
48647;SDS011;34437;-33.956;151.076;2023-05-10T01:01:35;1.25;;;1.10;;
48647;SDS011;34437;-33.956;151.076;2023-05-10T01:03:57;2.25;;;1.30;;
48647;SDS011;34437;-33.956;151.076;2023-05-10T01:06:20;1.10;;;1.00;;
48647;SDS011;34437;-33.956;151.076;2023-05-10T01:08:43;2.47;;;1.27;;
48647;SDS011;34437;-33.956;151.076;2023-05-10T01:11:06;2.10;;;1.30;;
48647;SDS011;34437;-33.956;151.076;2023-05-10T01:13:33;1.77;;;1.30;;
48647;SDS011;34437;-33.956;151.076;2023-05-10T01:16:00;2.38;;;1.50;;
48647;SDS011;34437;-33.956;151.076;2023-05-10T01:18:23;3.65;;;1.80;;
48647;SDS011;34437;-33.956;151.076;2023-05-10T01:20:48;2.85;;;1.52;;
48647;SDS011;34437;-33.956;151.076;2023-05-10T01:23:54;3.22;;;1.45;;
48647;SDS011;34437;-33.956;151.076;2023-05-10T01:29:16;2.58;;;1.60;;
48647;SDS011;34437;-33.956;151.076;2023-05-10T01:34:54;2.65;;;1.90;;
48647;SDS011;34437;-33.956;151.076;2023-05-10T01:37:20;2.55;;;1.48;;
48647;SDS011;34437;-33.956;151.076;2023-05-10T01:40:23;3.05;;;1.65;;
48647;SDS011;34437;-33.956;151.076;2023-05-10T01:42:46;3.08;;;1.83;;
48647;SDS011;34437;-33.956;151.076;2023-05-10T01:45:21;3.22;;;1.75;;
48647;SDS011;34437;-33.956;151.076;2023-05-10T01:48:09;3.38;;;2.08;;
48647;SDS011;34437;-33.956;151.076;2023-05-10T01:50:37;3.22;;;1.55;;
48647;SDS011;34437;-33.956;151.076;2023-05-10T01:53:02;3.45;;;2.03;;
48647;SDS011;34437;-33.956;151.076;2023-05-10T01:55:30;3.75;;;1.75;;
48647;SDS011;34437;-33.956;151.076;2023-05-10T01:57:58;3.45;;;1.80;;
48647;SDS011;34437;-33.956;151.076;2023-05-10T02:00:30;3.53;;;2.00;;
48647;SDS011;34437;-33.956;151.076;2023-05-10T02:02:53;5.87;;;2.60;;
48647;SDS011;34437;-33.956;151.076;2023-05-10T02:05:16;4.10;;;2.13;;
48647;SDS011;34437;-33.956;151.076;2023-05-10T02:07:40;4.38;;;1.63;;
48647;SDS011;34437;-33.956;151.076;2023-05-10T02:10:04;4.60;;;1.73;;
48647;SDS011;34437;-33.956;151.076;2023-05-10T02:12:28;3.13;;;2.00;;
48647;SDS011;34437;-33.956;151.076;2023-05-10T02:14:52;3.30;;;1.85;;
48647;SDS011;34437;-33.956;151.076;2023-05-10T02:17:16;3.58;;;1.90;;
48647;SDS011;34437;-33.956;151.076;2023-05-10T02:19:40;2.30;;;1.70;;
48647;SDS011;34437;-33.956;151.076;2023-05-10T02:22:04;3.95;;;1.90;;
48647;SDS011;34437;-33.956;151.076;2023-05-10T02:24:27;3.47;;;1.85;;
48647;SDS011;34437;-33.956;151.076;2023-05-10T02:26:51;3.17;;;1.63;;
48647;SDS011;34437;-33.956;151.076;2023-05-10T02:29:19;3.63;;;1.85;;
48647;SDS011;34437;-33.956;151.076;2023-05-10T02:31:44;3.13;;;1.45;;
48647;SDS011;34437;-33.956;151.076;2023-05-10T02:34:07;2.58;;;1.52;;
48647;SDS011;34437;-33.956;151.076;2023-05-10T02:36:31;3.08;;;1.60;;
48647;SDS011;34437;-33.956;151.076;2023-05-10T02:38:54;4.07;;;1.58;;
48647;SDS011;34437;-33.956;151.076;2023-05-10T02:41:17;3.65;;;2.03;;
48647;SDS011;34437;-33.956;151.076;2023-05-10T02:43:42;3.17;;;1.70;;
48647;SDS011;34437;-33.956;151.076;2023-05-10T02:46:05;2.67;;;1.33;;
48647;SDS011;34437;-33.956;151.076;2023-05-10T02:48:27;3.15;;;1.58;;
48647;SDS011;34437;-33.956;151.076;2023-05-10T02:50:50;3.35;;;1.50;;
48647;SDS011;34437;-33.956;151.076;2023-05-10T02:53:18;3.53;;;1.40;;
48647;SDS011;34437;-33.956;151.076;2023-05-10T02:55:51;3.30;;;1.25;;
48647;SDS011;34437;-33.956;151.076;2023-05-10T02:58:18;2.90;;;1.73;;
48647;SDS011;34437;-33.956;151.076;2023-05-10T03:00:41;2.40;;;1.50;;
48647;SDS011;34437;-33.956;151.076;2023-05-10T03:03:04;3.85;;;1.60;;
48647;SDS011;34437;-33.956;151.076;2023-05-10T03:05:27;3.07;;;2.00;;
48647;SDS011;34437;-33.956;151.076;2023-05-10T03:07:49;2.97;;;1.48;;
48647;SDS011;34437;-33.956;151.076;2023-05-10T03:10:12;2.17;;;1.48;;
48647;SDS011;34437;-33.956;151.076;2023-05-10T03:18:09;3.08;;;1.42;;
48647;SDS011;34437;-33.956;151.076;2023-05-10T03:20:43;2.53;;;1.30;;
48647;SDS011;34437;-33.956;151.076;2023-05-10T03:25:46;1.63;;;1.15;;
48647;SDS011;34437;-33.956;151.076;2023-05-10T03:28:11;3.42;;;1.40;;
48647;SDS011;34437;-33.956;151.076;2023-05-10T03:33:03;1.55;;;1.17;;
48647;SDS011;34437;-33.956;151.076;2023-05-10T03:35:29;2.08;;;1.02;;
48647;SDS011;34437;-33.956;151.076;2023-05-10T03:37:51;2.17;;;0.98;;
48647;SDS011;34437;-33.956;151.076;2023-05-10T03:40:13;2.20;;;1.15;;
48647;SDS011;34437;-33.956;151.076;2023-05-10T03:42:36;2.08;;;1.10;;
48647;SDS011;34437;-33.956;151.076;2023-05-10T03:44:59;1.77;;;1.25;;
48647;SDS011;34437;-33.956;151.076;2023-05-10T03:47:21;1.48;;;1.15;;
48647;SDS011;34437;-33.956;151.076;2023-05-10T03:49:44;1.92;;;0.95;;
48647;SDS011;34437;-33.956;151.076;2023-05-10T03:52:06;1.70;;;1.40;;
48647;SDS011;34437;-33.956;151.076;2023-05-10T03:54:28;2.45;;;1.05;;
48647;SDS011;34437;-33.956;151.076;2023-05-10T03:56:51;1.85;;;0.98;;
48647;SDS011;34437;-33.956;151.076;2023-05-10T03:59:13;1.23;;;0.80;;
48647;SDS011;34437;-33.956;151.076;2023-05-10T04:01:36;2.28;;;1.08;;
48647;SDS011;34437;-33.956;151.076;2023-05-10T04:03:58;1.48;;;1.02;;
48647;SDS011;34437;-33.956;151.076;2023-05-10T04:06:21;1.48;;;0.95;;
48647;SDS011;34437;-33.956;151.076;2023-05-10T04:08:43;1.58;;;1.00;;
48647;SDS011;34437;-33.956;151.076;2023-05-10T04:11:06;1.40;;;0.60;;
48647;SDS011;34437;-33.956;151.076;2023-05-10T04:13:29;2.38;;;1.30;;
48647;SDS011;34437;-33.956;151.076;2023-05-10T04:15:52;2.35;;;1.20;;
48647;SDS011;34437;-33.956;151.076;2023-05-10T04:18:14;1.70;;;1.10;;
48647;SDS011;34437;-33.956;151.076;2023-05-10T04:20:37;0.85;;;0.70;;
48647;SDS011;34437;-33.956;151.076;2023-05-10T04:23:00;1.63;;;1.10;;
48647;SDS011;34437;-33.956;151.076;2023-05-10T04:25:22;1.52;;;0.88;;
48647;SDS011;34437;-33.956;151.076;2023-05-10T04:27:45;0.70;;;0.70;;
48647;SDS011;34437;-33.956;151.076;2023-05-10T04:30:07;1.52;;;0.80;;
48647;SDS011;34437;-33.956;151.076;2023-05-10T04:32:30;1.98;;;1.00;;
48647;SDS011;34437;-33.956;151.076;2023-05-10T04:34:53;2.72;;;0.90;;
48647;SDS011;34437;-33.956;151.076;2023-05-10T04:37:15;0.60;;;0.60;;
48647;SDS011;34437;-33.956;151.076;2023-05-10T04:39:38;1.27;;;0.73;;
48647;SDS011;34437;-33.956;151.076;2023-05-10T04:42:01;0.93;;;0.63;;
48647;SDS011;34437;-33.956;151.076;2023-05-10T04:44:24;1.58;;;0.80;;
48647;SDS011;34437;-33.956;151.076;2023-05-10T04:46:46;1.33;;;0.65;;
48647;SDS011;34437;-33.956;151.076;2023-05-10T04:49:09;1.02;;;0.80;;
48647;SDS011;34437;-33.956;151.076;2023-05-10T04:51:31;0.80;;;0.60;;
48647;SDS011;34437;-33.956;151.076;2023-05-10T04:53:53;1.33;;;0.70;;
48647;SDS011;34437;-33.956;151.076;2023-05-10T04:56:16;0.85;;;0.60;;
48647;SDS011;34437;-33.956;151.076;2023-05-10T04:58:38;0.77;;;0.50;;
48647;SDS011;34437;-33.956;151.076;2023-05-10T05:01:07;1.67;;;0.57;;
48647;SDS011;34437;-33.956;151.076;2023-05-10T05:03:31;1.13;;;0.70;;
48647;SDS011;34437;-33.956;151.076;2023-05-10T05:05:54;0.80;;;0.70;;
48647;SDS011;34437;-33.956;151.076;2023-05-10T05:08:16;0.95;;;0.70;;
48647;SDS011;34437;-33.956;151.076;2023-05-10T05:10:39;1.23;;;0.68;;
48647;SDS011;34437;-33.956;151.076;2023-05-10T05:13:01;1.13;;;0.85;;
48647;SDS011;34437;-33.956;151.076;2023-05-10T05:15:23;1.75;;;1.00;;
48647;SDS011;34437;-33.956;151.076;2023-05-10T05:17:46;1.83;;;1.15;;
48647;SDS011;34437;-33.956;151.076;2023-05-10T05:20:08;3.75;;;1.80;;
48647;SDS011;34437;-33.956;151.076;2023-05-10T05:22:32;3.03;;;1.88;;
48647;SDS011;34437;-33.956;151.076;2023-05-10T05:24:57;2.75;;;1.83;;
48647;SDS011;34437;-33.956;151.076;2023-05-10T05:27:19;3.33;;;2.03;;
48647;SDS011;34437;-33.956;151.076;2023-05-10T05:29:44;3.50;;;2.30;;
48647;SDS011;34437;-33.956;151.076;2023-05-10T05:32:07;6.72;;;2.40;;
48647;SDS011;34437;-33.956;151.076;2023-05-10T05:34:29;3.50;;;2.10;;
48647;SDS011;34437;-33.956;151.076;2023-05-10T05:36:52;4.15;;;2.10;;
48647;SDS011;34437;-33.956;151.076;2023-05-10T05:39:14;3.25;;;2.08;;
48647;SDS011;34437;-33.956;151.076;2023-05-10T05:41:37;4.03;;;2.40;;
48647;SDS011;34437;-33.956;151.076;2023-05-10T05:43:59;3.08;;;2.03;;
48647;SDS011;34437;-33.956;151.076;2023-05-10T05:46:22;4.38;;;1.95;;
48647;SDS011;34437;-33.956;151.076;2023-05-10T05:48:44;3.63;;;2.10;;
48647;SDS011;34437;-33.956;151.076;2023-05-10T05:51:06;2.63;;;1.90;;
48647;SDS011;34437;-33.956;151.076;2023-05-10T05:53:29;3.08;;;2.10;;
48647;SDS011;34437;-33.956;151.076;2023-05-10T05:55:52;3.58;;;1.92;;
48647;SDS011;34437;-33.956;151.076;2023-05-10T05:58:15;2.60;;;1.67;;
48647;SDS011;34437;-33.956;151.076;2023-05-10T06:00:37;4.15;;;2.10;;
48647;SDS011;34437;-33.956;151.076;2023-05-10T06:02:59;3.28;;;1.88;;
48647;SDS011;34437;-33.956;151.076;2023-05-10T06:05:22;2.65;;;1.60;;
48647;SDS011;34437;-33.956;151.076;2023-05-10T06:07:44;2.58;;;1.75;;
48647;SDS011;34437;-33.956;151.076;2023-05-10T06:10:07;2.88;;;1.60;;
48647;SDS011;34437;-33.956;151.076;2023-05-10T06:12:30;3.67;;;1.90;;
48647;SDS011;34437;-33.956;151.076;2023-05-10T06:14:52;3.05;;;1.70;;
48647;SDS011;34437;-33.956;151.076;2023-05-10T06:17:15;2.42;;;1.35;;
48647;SDS011;34437;-33.956;151.076;2023-05-10T06:19:37;3.80;;;1.70;;
48647;SDS011;34437;-33.956;151.076;2023-05-10T06:21:59;1.58;;;1.20;;
48647;SDS011;34437;-33.956;151.076;2023-05-10T06:24:22;3.15;;;1.60;;
48647;SDS011;34437;-33.956;151.076;2023-05-10T06:26:44;2.60;;;1.60;;
48647;SDS011;34437;-33.956;151.076;2023-05-10T06:29:06;2.72;;;1.25;;
48647;SDS011;34437;-33.956;151.076;2023-05-10T06:31:29;1.77;;;1.33;;
48647;SDS011;34437;-33.956;151.076;2023-05-10T06:33:51;2.55;;;1.65;;
48647;SDS011;34437;-33.956;151.076;2023-05-10T06:36:14;3.00;;;1.40;;
48647;SDS011;34437;-33.956;151.076;2023-05-10T06:38:36;1.83;;;1.20;;
48647;SDS011;34437;-33.956;151.076;2023-05-10T06:40:58;1.88;;;1.45;;
48647;SDS011;34437;-33.956;151.076;2023-05-10T06:43:21;2.38;;;1.40;;
48647;SDS011;34437;-33.956;151.076;2023-05-10T06:45:45;2.08;;;1.40;;
48647;SDS011;34437;-33.956;151.076;2023-05-10T06:48:07;2.22;;;1.20;;
48647;SDS011;34437;-33.956;151.076;2023-05-10T06:50:30;1.92;;;1.08;;
48647;SDS011;34437;-33.956;151.076;2023-05-10T06:52:52;3.78;;;1.38;;
48647;SDS011;34437;-33.956;151.076;2023-05-10T06:55:16;1.80;;;1.10;;
48647;SDS011;34437;-33.956;151.076;2023-05-10T06:57:38;1.92;;;0.90;;
48647;SDS011;34437;-33.956;151.076;2023-05-10T07:00:01;2.40;;;1.15;;
48647;SDS011;34437;-33.956;151.076;2023-05-10T07:02:27;3.00;;;1.25;;
48647;SDS011;34437;-33.956;151.076;2023-05-10T07:04:49;2.17;;;1.25;;
48647;SDS011;34437;-33.956;151.076;2023-05-10T07:07:13;1.45;;;1.10;;
48647;SDS011;34437;-33.956;151.076;2023-05-10T07:09:36;2.85;;;1.10;;
48647;SDS011;34437;-33.956;151.076;2023-05-10T07:11:58;1.73;;;0.88;;
48647;SDS011;34437;-33.956;151.076;2023-05-10T07:16:44;1.98;;;1.05;;
48647;SDS011;34437;-33.956;151.076;2023-05-10T07:19:06;1.38;;;1.00;;
48647;SDS011;34437;-33.956;151.076;2023-05-10T07:21:29;1.80;;;1.00;;
48647;SDS011;34437;-33.956;151.076;2023-05-10T07:23:52;1.65;;;0.93;;
48647;SDS011;34437;-33.956;151.076;2023-05-10T07:26:14;2.65;;;1.17;;
48647;SDS011;34437;-33.956;151.076;2023-05-10T07:28:37;1.63;;;1.00;;
48647;SDS011;34437;-33.956;151.076;2023-05-10T07:30:59;2.63;;;0.75;;
48647;SDS011;34437;-33.956;151.076;2023-05-10T07:33:22;0.90;;;0.80;;
48647;SDS011;34437;-33.956;151.076;2023-05-10T07:35:44;1.45;;;1.00;;
48647;SDS011;34437;-33.956;151.076;2023-05-10T07:38:07;1.60;;;1.00;;
48647;SDS011;34437;-33.956;151.076;2023-05-10T07:40:31;1.40;;;1.00;;
48647;SDS011;34437;-33.956;151.076;2023-05-10T07:45:23;2.10;;;0.85;;
48647;SDS011;34437;-33.956;151.076;2023-05-10T07:47:46;2.17;;;1.00;;
48647;SDS011;34437;-33.956;151.076;2023-05-10T07:50:08;1.35;;;0.70;;
48647;SDS011;34437;-33.956;151.076;2023-05-10T07:52:31;1.58;;;0.82;;
48647;SDS011;34437;-33.956;151.076;2023-05-10T07:54:53;2.42;;;1.38;;
48647;SDS011;34437;-33.956;151.076;2023-05-10T07:57:17;1.45;;;0.73;;
48647;SDS011;34437;-33.956;151.076;2023-05-10T07:59:40;2.88;;;1.20;;
48647;SDS011;34437;-33.956;151.076;2023-05-10T08:02:03;1.38;;;0.80;;
48647;SDS011;34437;-33.956;151.076;2023-05-10T08:04:25;3.28;;;1.10;;
48647;SDS011;34437;-33.956;151.076;2023-05-10T08:06:48;2.38;;;1.33;;
48647;SDS011;34437;-33.956;151.076;2023-05-10T08:09:10;2.28;;;1.10;;
48647;SDS011;34437;-33.956;151.076;2023-05-10T08:11:33;3.78;;;1.38;;
48647;SDS011;34437;-33.956;151.076;2023-05-10T08:13:56;5.97;;;1.80;;
48647;SDS011;34437;-33.956;151.076;2023-05-10T08:16:18;4.68;;;1.98;;
48647;SDS011;34437;-33.956;151.076;2023-05-10T08:18:41;5.53;;;1.80;;
48647;SDS011;34437;-33.956;151.076;2023-05-10T08:21:04;4.32;;;2.30;;
48647;SDS011;34437;-33.956;151.076;2023-05-10T08:23:27;3.45;;;1.50;;
48647;SDS011;34437;-33.956;151.076;2023-05-10T08:25:49;3.50;;;1.50;;
48647;SDS011;34437;-33.956;151.076;2023-05-10T08:28:12;3.58;;;1.88;;
48647;SDS011;34437;-33.956;151.076;2023-05-10T08:30:34;4.80;;;2.08;;
48647;SDS011;34437;-33.956;151.076;2023-05-10T08:32:56;4.45;;;2.10;;
48647;SDS011;34437;-33.956;151.076;2023-05-10T08:35:19;3.28;;;1.98;;
48647;SDS011;34437;-33.956;151.076;2023-05-10T08:37:41;5.57;;;2.58;;
48647;SDS011;34437;-33.956;151.076;2023-05-10T08:40:04;6.60;;;3.10;;
48647;SDS011;34437;-33.956;151.076;2023-05-10T08:42:28;5.38;;;2.45;;
48647;SDS011;34437;-33.956;151.076;2023-05-10T08:44:54;8.80;;;2.25;;
48647;SDS011;34437;-33.956;151.076;2023-05-10T08:49:40;4.60;;;2.30;;
48647;SDS011;34437;-33.956;151.076;2023-05-10T08:52:04;10.95;;;2.20;;
48647;SDS011;34437;-33.956;151.076;2023-05-10T08:54:28;4.85;;;1.95;;
48647;SDS011;34437;-33.956;151.076;2023-05-10T08:56:52;3.40;;;1.60;;
48647;SDS011;34437;-33.956;151.076;2023-05-10T08:59:15;4.07;;;1.83;;
48647;SDS011;34437;-33.956;151.076;2023-05-10T09:01:37;5.47;;;1.90;;
48647;SDS011;34437;-33.956;151.076;2023-05-10T09:04:01;3.90;;;1.80;;
48647;SDS011;34437;-33.956;151.076;2023-05-10T09:06:25;6.68;;;1.98;;
48647;SDS011;34437;-33.956;151.076;2023-05-10T09:08:47;4.32;;;1.55;;
48647;SDS011;34437;-33.956;151.076;2023-05-10T09:11:11;5.30;;;2.03;;
48647;SDS011;34437;-33.956;151.076;2023-05-10T09:13:34;4.40;;;1.35;;
48647;SDS011;34437;-33.956;151.076;2023-05-10T09:15:57;3.00;;;1.50;;
48647;SDS011;34437;-33.956;151.076;2023-05-10T09:18:21;3.05;;;1.50;;
48647;SDS011;34437;-33.956;151.076;2023-05-10T09:20:43;2.17;;;1.45;;
48647;SDS011;34437;-33.956;151.076;2023-05-10T09:23:06;5.95;;;1.67;;
48647;SDS011;34437;-33.956;151.076;2023-05-10T09:25:28;8.35;;;2.10;;
48647;SDS011;34437;-33.956;151.076;2023-05-10T09:27:51;6.80;;;1.83;;
48647;SDS011;34437;-33.956;151.076;2023-05-10T09:30:32;5.65;;;1.65;;
48647;SDS011;34437;-33.956;151.076;2023-05-10T09:32:55;8.63;;;2.58;;
48647;SDS011;34437;-33.956;151.076;2023-05-10T09:37:43;8.75;;;2.75;;
48647;SDS011;34437;-33.956;151.076;2023-05-10T09:40:16;13.73;;;2.63;;
48647;SDS011;34437;-33.956;151.076;2023-05-10T09:42:41;15.50;;;2.63;;
48647;SDS011;34437;-33.956;151.076;2023-05-10T09:45:14;12.52;;;2.22;;
48647;SDS011;34437;-33.956;151.076;2023-05-10T09:47:36;17.80;;;2.70;;
48647;SDS011;34437;-33.956;151.076;2023-05-10T09:50:00;9.63;;;2.40;;
48647;SDS011;34437;-33.956;151.076;2023-05-10T09:52:25;11.35;;;2.13;;
48647;SDS011;34437;-33.956;151.076;2023-05-10T09:54:54;8.98;;;2.13;;
48647;SDS011;34437;-33.956;151.076;2023-05-10T09:57:23;6.85;;;1.90;;
48647;SDS011;34437;-33.956;151.076;2023-05-10T09:59:46;4.82;;;1.85;;
48647;SDS011;34437;-33.956;151.076;2023-05-10T10:02:10;6.40;;;1.60;;
48647;SDS011;34437;-33.956;151.076;2023-05-10T10:04:33;4.65;;;1.70;;
48647;SDS011;34437;-33.956;151.076;2023-05-10T10:07:03;4.88;;;1.73;;
48647;SDS011;34437;-33.956;151.076;2023-05-10T10:09:31;19.75;;;3.40;;
48647;SDS011;34437;-33.956;151.076;2023-05-10T10:11:54;18.05;;;3.53;;
48647;SDS011;34437;-33.956;151.076;2023-05-10T10:14:18;11.63;;;2.35;;
48647;SDS011;34437;-33.956;151.076;2023-05-10T10:16:41;7.35;;;1.65;;
48647;SDS011;34437;-33.956;151.076;2023-05-10T10:19:03;9.20;;;2.05;;
48647;SDS011;34437;-33.956;151.076;2023-05-10T10:21:27;4.80;;;1.70;;
48647;SDS011;34437;-33.956;151.076;2023-05-10T10:23:50;6.45;;;1.52;;
48647;SDS011;34437;-33.956;151.076;2023-05-10T10:26:14;7.38;;;1.15;;
48647;SDS011;34437;-33.956;151.076;2023-05-10T10:29:08;4.43;;;1.10;;
48647;SDS011;34437;-33.956;151.076;2023-05-10T10:34:59;4.45;;;1.10;;
48647;SDS011;34437;-33.956;151.076;2023-05-10T10:37:22;3.38;;;0.70;;
48647;SDS011;34437;-33.956;151.076;2023-05-10T10:39:45;3.10;;;0.80;;
48647;SDS011;34437;-33.956;151.076;2023-05-10T10:42:11;2.75;;;1.00;;
48647;SDS011;34437;-33.956;151.076;2023-05-10T10:44:34;1.42;;;0.60;;
48647;SDS011;34437;-33.956;151.076;2023-05-10T10:49:50;2.40;;;0.80;;
48647;SDS011;34437;-33.956;151.076;2023-05-10T10:52:28;2.38;;;1.30;;
48647;SDS011;34437;-33.956;151.076;2023-05-10T10:55:00;2.88;;;0.73;;
48647;SDS011;34437;-33.956;151.076;2023-05-10T10:57:43;4.05;;;0.75;;
48647;SDS011;34437;-33.956;151.076;2023-05-10T11:00:21;4.57;;;1.05;;
48647;SDS011;34437;-33.956;151.076;2023-05-10T11:02:46;8.65;;;1.15;;
48647;SDS011;34437;-33.956;151.076;2023-05-10T11:10:51;3.10;;;1.00;;
48647;SDS011;34437;-33.956;151.076;2023-05-10T11:13:31;4.70;;;1.38;;
48647;SDS011;34437;-33.956;151.076;2023-05-10T11:16:27;2.65;;;0.90;;
48647;SDS011;34437;-33.956;151.076;2023-05-10T11:21:17;3.55;;;1.85;;
48647;SDS011;34437;-33.956;151.076;2023-05-10T11:26:08;3.60;;;1.40;;
48647;SDS011;34437;-33.956;151.076;2023-05-10T11:28:31;2.60;;;1.70;;
48647;SDS011;34437;-33.956;151.076;2023-05-10T11:30:54;3.22;;;1.52;;
48647;SDS011;34437;-33.956;151.076;2023-05-10T11:33:17;2.15;;;1.48;;
48647;SDS011;34437;-33.956;151.076;2023-05-10T11:36:03;2.67;;;1.33;;
48647;SDS011;34437;-33.956;151.076;2023-05-10T11:38:56;4.13;;;1.40;;
48647;SDS011;34437;-33.956;151.076;2023-05-10T11:41:19;2.72;;;1.63;;
48647;SDS011;34437;-33.956;151.076;2023-05-10T11:43:52;4.03;;;1.30;;
48647;SDS011;34437;-33.956;151.076;2023-05-10T11:46:15;3.97;;;1.50;;
48647;SDS011;34437;-33.956;151.076;2023-05-10T11:48:42;6.40;;;1.33;;
48647;SDS011;34437;-33.956;151.076;2023-05-10T11:51:06;5.55;;;2.17;;
48647;SDS011;34437;-33.956;151.076;2023-05-10T11:53:32;2.33;;;1.52;;
48647;SDS011;34437;-33.956;151.076;2023-05-10T11:55:55;4.18;;;1.45;;
48647;SDS011;34437;-33.956;151.076;2023-05-10T11:58:30;4.22;;;1.17;;
48647;SDS011;34437;-33.956;151.076;2023-05-10T12:00:59;4.47;;;1.45;;
48647;SDS011;34437;-33.956;151.076;2023-05-10T12:04:16;3.75;;;1.50;;
48647;SDS011;34437;-33.956;151.076;2023-05-10T12:06:39;4.13;;;1.98;;
48647;SDS011;34437;-33.956;151.076;2023-05-10T12:09:05;2.78;;;1.52;;
48647;SDS011;34437;-33.956;151.076;2023-05-10T12:11:29;4.28;;;1.20;;
48647;SDS011;34437;-33.956;151.076;2023-05-10T12:13:51;3.83;;;1.20;;
48647;SDS011;34437;-33.956;151.076;2023-05-10T12:16:22;4.82;;;1.30;;
48647;SDS011;34437;-33.956;151.076;2023-05-10T12:18:53;2.97;;;1.20;;
48647;SDS011;34437;-33.956;151.076;2023-05-10T12:21:20;1.90;;;1.08;;
48647;SDS011;34437;-33.956;151.076;2023-05-10T12:23:44;2.70;;;1.40;;
48647;SDS011;34437;-33.956;151.076;2023-05-10T12:26:09;2.85;;;1.20;;
48647;SDS011;34437;-33.956;151.076;2023-05-10T12:28:32;3.58;;;1.20;;
48647;SDS011;34437;-33.956;151.076;2023-05-10T12:30:54;3.27;;;1.63;;
48647;SDS011;34437;-33.956;151.076;2023-05-10T12:35:45;3.30;;;1.25;;
48647;SDS011;34437;-33.956;151.076;2023-05-10T12:38:28;3.08;;;1.33;;
48647;SDS011;34437;-33.956;151.076;2023-05-10T12:40:51;2.90;;;1.10;;
48647;SDS011;34437;-33.956;151.076;2023-05-10T12:45:57;3.65;;;1.30;;
48647;SDS011;34437;-33.956;151.076;2023-05-10T12:48:20;3.28;;;1.33;;
48647;SDS011;34437;-33.956;151.076;2023-05-10T12:50:42;1.98;;;1.10;;
48647;SDS011;34437;-33.956;151.076;2023-05-10T12:53:05;4.38;;;1.35;;
48647;SDS011;34437;-33.956;151.076;2023-05-10T12:55:28;4.30;;;1.20;;
48647;SDS011;34437;-33.956;151.076;2023-05-10T12:57:54;2.45;;;1.10;;
48647;SDS011;34437;-33.956;151.076;2023-05-10T13:00:16;2.42;;;1.23;;
48647;SDS011;34437;-33.956;151.076;2023-05-10T13:02:39;4.70;;;1.33;;
48647;SDS011;34437;-33.956;151.076;2023-05-10T13:05:01;2.60;;;1.02;;
48647;SDS011;34437;-33.956;151.076;2023-05-10T13:07:24;2.25;;;0.98;;
48647;SDS011;34437;-33.956;151.076;2023-05-10T13:09:46;3.92;;;1.20;;
48647;SDS011;34437;-33.956;151.076;2023-05-10T13:12:08;2.03;;;0.85;;
48647;SDS011;34437;-33.956;151.076;2023-05-10T13:14:31;7.35;;;1.23;;
48647;SDS011;34437;-33.956;151.076;2023-05-10T13:16:53;1.48;;;1.00;;
48647;SDS011;34437;-33.956;151.076;2023-05-10T13:19:16;3.75;;;1.10;;
48647;SDS011;34437;-33.956;151.076;2023-05-10T13:21:39;1.33;;;0.90;;
48647;SDS011;34437;-33.956;151.076;2023-05-10T13:24:07;3.55;;;1.15;;
48647;SDS011;34437;-33.956;151.076;2023-05-10T13:26:30;2.20;;;1.27;;
48647;SDS011;34437;-33.956;151.076;2023-05-10T13:28:53;1.95;;;0.98;;
48647;SDS011;34437;-33.956;151.076;2023-05-10T13:31:18;2.53;;;1.10;;
48647;SDS011;34437;-33.956;151.076;2023-05-10T13:33:41;1.38;;;1.08;;
48647;SDS011;34437;-33.956;151.076;2023-05-10T13:36:04;2.05;;;1.10;;
48647;SDS011;34437;-33.956;151.076;2023-05-10T13:38:30;1.35;;;1.00;;
48647;SDS011;34437;-33.956;151.076;2023-05-10T13:40:52;1.17;;;1.05;;
48647;SDS011;34437;-33.956;151.076;2023-05-10T13:43:15;2.25;;;1.02;;
48647;SDS011;34437;-33.956;151.076;2023-05-10T13:45:37;2.10;;;0.98;;
48647;SDS011;34437;-33.956;151.076;2023-05-10T13:48:03;1.00;;;0.90;;
48647;SDS011;34437;-33.956;151.076;2023-05-10T13:50:31;2.72;;;1.20;;
48647;SDS011;34437;-33.956;151.076;2023-05-10T13:52:59;1.98;;;0.90;;
48647;SDS011;34437;-33.956;151.076;2023-05-10T13:55:22;2.40;;;1.23;;
48647;SDS011;34437;-33.956;151.076;2023-05-10T13:57:44;1.60;;;1.10;;
48647;SDS011;34437;-33.956;151.076;2023-05-10T14:00:07;2.42;;;1.00;;
48647;SDS011;34437;-33.956;151.076;2023-05-10T14:02:30;3.50;;;1.23;;
48647;SDS011;34437;-33.956;151.076;2023-05-10T14:04:52;2.80;;;0.98;;
48647;SDS011;34437;-33.956;151.076;2023-05-10T14:07:15;6.15;;;1.27;;
48647;SDS011;34437;-33.956;151.076;2023-05-10T14:09:38;4.53;;;1.83;;
48647;SDS011;34437;-33.956;151.076;2023-05-10T14:12:00;3.88;;;1.33;;
48647;SDS011;34437;-33.956;151.076;2023-05-10T14:14:24;3.00;;;1.08;;
48647;SDS011;34437;-33.956;151.076;2023-05-10T14:16:47;6.43;;;1.58;;
48647;SDS011;34437;-33.956;151.076;2023-05-10T14:19:10;6.72;;;1.77;;
48647;SDS011;34437;-33.956;151.076;2023-05-10T14:21:32;7.10;;;1.30;;
48647;SDS011;34437;-33.956;151.076;2023-05-10T14:23:55;2.80;;;1.40;;
48647;SDS011;34437;-33.956;151.076;2023-05-10T14:26:17;2.20;;;1.38;;
48647;SDS011;34437;-33.956;151.076;2023-05-10T14:28:41;1.02;;;0.90;;
48647;SDS011;34437;-33.956;151.076;2023-05-10T14:31:07;3.95;;;1.13;;
48647;SDS011;34437;-33.956;151.076;2023-05-10T14:33:30;3.38;;;1.05;;
48647;SDS011;34437;-33.956;151.076;2023-05-10T14:35:55;2.20;;;1.17;;
48647;SDS011;34437;-33.956;151.076;2023-05-10T14:38:18;7.10;;;1.17;;
48647;SDS011;34437;-33.956;151.076;2023-05-10T14:40:40;3.05;;;1.27;;
48647;SDS011;34437;-33.956;151.076;2023-05-10T14:43:03;2.10;;;1.30;;